sensor_id;sensor_type;location;lat;lon;timestamp;P1;durP1;ratioP1;P2;durP2;ratioP2
19111;SDS011;9688;51.906;8.376;2023-05-07T00:01:19;15.43;;;8.00;;
19111;SDS011;9688;51.906;8.376;2023-05-07T00:04:05;12.07;;;7.83;;
19111;SDS011;9688;51.906;8.376;2023-05-07T00:06:51;14.17;;;8.33;;
19111;SDS011;9688;51.906;8.376;2023-05-07T00:09:36;13.33;;;8.53;;
19111;SDS011;9688;51.906;8.376;2023-05-07T00:12:23;14.53;;;8.57;;
19111;SDS011;9688;51.906;8.376;2023-05-07T00:15:09;14.57;;;8.90;;
19111;SDS011;9688;51.906;8.376;2023-05-07T00:17:55;11.63;;;8.43;;
19111;SDS011;9688;51.906;8.376;2023-05-07T00:20:41;13.80;;;9.10;;
19111;SDS011;9688;51.906;8.376;2023-05-07T00:23:26;11.47;;;8.70;;
19111;SDS011;9688;51.906;8.376;2023-05-07T00:26:12;14.03;;;9.00;;
19111;SDS011;9688;51.906;8.376;2023-05-07T00:28:59;15.03;;;9.37;;
19111;SDS011;9688;51.906;8.376;2023-05-07T00:31:45;13.27;;;9.93;;
19111;SDS011;9688;51.906;8.376;2023-05-07T00:34:30;14.47;;;9.83;;
19111;SDS011;9688;51.906;8.376;2023-05-07T00:37:16;15.20;;;10.03;;
19111;SDS011;9688;51.906;8.376;2023-05-07T00:40:04;15.13;;;10.40;;
19111;SDS011;9688;51.906;8.376;2023-05-07T00:42:52;16.43;;;10.17;;
19111;SDS011;9688;51.906;8.376;2023-05-07T00:45:43;16.83;;;10.33;;
19111;SDS011;9688;51.906;8.376;2023-05-07T00:48:28;18.20;;;10.80;;
19111;SDS011;9688;51.906;8.376;2023-05-07T00:51:15;15.03;;;10.30;;
19111;SDS011;9688;51.906;8.376;2023-05-07T00:54:01;15.80;;;10.27;;
19111;SDS011;9688;51.906;8.376;2023-05-07T00:56:47;15.23;;;10.27;;
19111;SDS011;9688;51.906;8.376;2023-05-07T00:59:33;17.63;;;11.00;;
19111;SDS011;9688;51.906;8.376;2023-05-07T01:02:21;16.53;;;11.00;;
19111;SDS011;9688;51.906;8.376;2023-05-07T01:05:07;18.90;;;11.20;;
19111;SDS011;9688;51.906;8.376;2023-05-07T01:07:55;18.80;;;11.53;;
19111;SDS011;9688;51.906;8.376;2023-05-07T01:10:42;16.63;;;11.07;;
19111;SDS011;9688;51.906;8.376;2023-05-07T01:13:29;16.87;;;10.80;;
19111;SDS011;9688;51.906;8.376;2023-05-07T01:16:15;16.80;;;11.50;;
19111;SDS011;9688;51.906;8.376;2023-05-07T01:19:02;16.40;;;10.80;;
19111;SDS011;9688;51.906;8.376;2023-05-07T01:21:49;19.17;;;11.43;;
19111;SDS011;9688;51.906;8.376;2023-05-07T01:24:37;15.83;;;11.17;;
19111;SDS011;9688;51.906;8.376;2023-05-07T01:27:23;21.60;;;11.30;;
19111;SDS011;9688;51.906;8.376;2023-05-07T01:30:08;17.97;;;11.87;;
19111;SDS011;9688;51.906;8.376;2023-05-07T01:32:57;19.30;;;11.53;;
19111;SDS011;9688;51.906;8.376;2023-05-07T01:35:46;18.10;;;12.33;;
19111;SDS011;9688;51.906;8.376;2023-05-07T01:38:34;23.07;;;12.43;;
19111;SDS011;9688;51.906;8.376;2023-05-07T01:41:22;20.30;;;11.93;;
19111;SDS011;9688;51.906;8.376;2023-05-07T01:44:08;20.90;;;12.60;;
19111;SDS011;9688;51.906;8.376;2023-05-07T01:46:57;22.13;;;12.47;;
19111;SDS011;9688;51.906;8.376;2023-05-07T01:49:44;16.07;;;11.60;;
19111;SDS011;9688;51.906;8.376;2023-05-07T01:52:30;16.33;;;11.87;;
19111;SDS011;9688;51.906;8.376;2023-05-07T01:55:16;20.33;;;12.23;;
19111;SDS011;9688;51.906;8.376;2023-05-07T01:58:03;19.33;;;12.73;;
19111;SDS011;9688;51.906;8.376;2023-05-07T02:00:51;18.13;;;12.03;;
19111;SDS011;9688;51.906;8.376;2023-05-07T02:03:36;17.23;;;12.80;;
19111;SDS011;9688;51.906;8.376;2023-05-07T02:06:22;18.80;;;12.30;;
19111;SDS011;9688;51.906;8.376;2023-05-07T02:09:07;16.13;;;12.30;;
19111;SDS011;9688;51.906;8.376;2023-05-07T02:11:53;18.30;;;12.40;;
19111;SDS011;9688;51.906;8.376;2023-05-07T02:14:40;16.77;;;11.83;;
19111;SDS011;9688;51.906;8.376;2023-05-07T02:17:26;17.13;;;12.57;;
19111;SDS011;9688;51.906;8.376;2023-05-07T02:20:15;20.03;;;12.97;;
19111;SDS011;9688;51.906;8.376;2023-05-07T02:23:01;17.70;;;12.00;;
19111;SDS011;9688;51.906;8.376;2023-05-07T02:25:46;18.33;;;12.07;;
19111;SDS011;9688;51.906;8.376;2023-05-07T02:28:31;17.83;;;12.43;;
19111;SDS011;9688;51.906;8.376;2023-05-07T02:31:20;19.53;;;13.23;;
19111;SDS011;9688;51.906;8.376;2023-05-07T02:34:06;17.63;;;13.10;;
19111;SDS011;9688;51.906;8.376;2023-05-07T02:36:51;25.60;;;13.53;;
19111;SDS011;9688;51.906;8.376;2023-05-07T02:39:36;18.37;;;12.63;;
19111;SDS011;9688;51.906;8.376;2023-05-07T02:42:22;20.50;;;13.07;;
19111;SDS011;9688;51.906;8.376;2023-05-07T02:45:08;21.43;;;13.87;;
19111;SDS011;9688;51.906;8.376;2023-05-07T02:47:56;20.30;;;12.83;;
19111;SDS011;9688;51.906;8.376;2023-05-07T02:50:41;23.50;;;13.40;;
19111;SDS011;9688;51.906;8.376;2023-05-07T02:53:26;22.37;;;13.70;;
19111;SDS011;9688;51.906;8.376;2023-05-07T02:56:13;20.83;;;13.00;;
19111;SDS011;9688;51.906;8.376;2023-05-07T02:58:58;22.37;;;13.70;;
19111;SDS011;9688;51.906;8.376;2023-05-07T03:01:44;19.90;;;13.10;;
19111;SDS011;9688;51.906;8.376;2023-05-07T03:04:30;25.00;;;12.97;;
19111;SDS011;9688;51.906;8.376;2023-05-07T03:07:16;20.43;;;13.13;;
19111;SDS011;9688;51.906;8.376;2023-05-07T03:10:07;23.17;;;13.93;;
19111;SDS011;9688;51.906;8.376;2023-05-07T03:12:53;19.47;;;13.63;;
19111;SDS011;9688;51.906;8.376;2023-05-07T03:15:39;19.50;;;13.17;;
19111;SDS011;9688;51.906;8.376;2023-05-07T03:18:24;22.87;;;13.97;;
19111;SDS011;9688;51.906;8.376;2023-05-07T03:21:11;20.80;;;13.20;;
19111;SDS011;9688;51.906;8.376;2023-05-07T03:23:57;23.00;;;15.27;;
19111;SDS011;9688;51.906;8.376;2023-05-07T03:26:42;21.40;;;14.53;;
19111;SDS011;9688;51.906;8.376;2023-05-07T03:29:27;22.53;;;13.60;;
19111;SDS011;9688;51.906;8.376;2023-05-07T03:32:14;22.90;;;13.83;;
19111;SDS011;9688;51.906;8.376;2023-05-07T03:35:00;22.97;;;13.43;;
19111;SDS011;9688;51.906;8.376;2023-05-07T03:37:47;22.63;;;15.00;;
19111;SDS011;9688;51.906;8.376;2023-05-07T03:40:33;20.77;;;14.90;;
19111;SDS011;9688;51.906;8.376;2023-05-07T03:43:18;26.43;;;14.80;;
19111;SDS011;9688;51.906;8.376;2023-05-07T03:46:04;22.77;;;14.17;;
19111;SDS011;9688;51.906;8.376;2023-05-07T03:48:49;20.07;;;14.60;;
19111;SDS011;9688;51.906;8.376;2023-05-07T03:51:35;22.43;;;15.00;;
19111;SDS011;9688;51.906;8.376;2023-05-07T03:54:22;23.37;;;13.53;;
19111;SDS011;9688;51.906;8.376;2023-05-07T03:57:07;23.70;;;14.77;;
19111;SDS011;9688;51.906;8.376;2023-05-07T03:59:53;22.80;;;14.53;;
19111;SDS011;9688;51.906;8.376;2023-05-07T04:02:39;24.40;;;15.33;;
19111;SDS011;9688;51.906;8.376;2023-05-07T04:05:24;24.00;;;15.27;;
19111;SDS011;9688;51.906;8.376;2023-05-07T04:08:10;19.97;;;14.03;;
19111;SDS011;9688;51.906;8.376;2023-05-07T04:10:57;22.90;;;15.63;;
19111;SDS011;9688;51.906;8.376;2023-05-07T04:13:43;20.70;;;14.87;;
19111;SDS011;9688;51.906;8.376;2023-05-07T04:16:29;24.17;;;15.83;;
19111;SDS011;9688;51.906;8.376;2023-05-07T04:19:14;21.10;;;14.53;;
19111;SDS011;9688;51.906;8.376;2023-05-07T04:22:00;22.00;;;14.87;;
19111;SDS011;9688;51.906;8.376;2023-05-07T04:24:45;21.77;;;15.07;;
19111;SDS011;9688;51.906;8.376;2023-05-07T04:27:32;23.20;;;15.63;;
19111;SDS011;9688;51.906;8.376;2023-05-07T04:30:17;22.43;;;15.10;;
19111;SDS011;9688;51.906;8.376;2023-05-07T04:33:03;25.10;;;15.50;;
19111;SDS011;9688;51.906;8.376;2023-05-07T04:35:50;23.50;;;15.93;;
19111;SDS011;9688;51.906;8.376;2023-05-07T04:38:35;23.37;;;15.47;;
19111;SDS011;9688;51.906;8.376;2023-05-07T04:41:21;22.80;;;14.43;;
19111;SDS011;9688;51.906;8.376;2023-05-07T04:44:08;23.10;;;15.07;;
19111;SDS011;9688;51.906;8.376;2023-05-07T04:46:54;23.77;;;15.30;;
19111;SDS011;9688;51.906;8.376;2023-05-07T04:49:40;26.03;;;16.30;;
19111;SDS011;9688;51.906;8.376;2023-05-07T04:52:26;24.23;;;15.87;;
19111;SDS011;9688;51.906;8.376;2023-05-07T04:55:11;29.47;;;16.50;;
19111;SDS011;9688;51.906;8.376;2023-05-07T04:57:57;24.10;;;15.33;;
19111;SDS011;9688;51.906;8.376;2023-05-07T05:00:46;26.90;;;15.90;;
19111;SDS011;9688;51.906;8.376;2023-05-07T05:03:31;26.37;;;16.57;;
19111;SDS011;9688;51.906;8.376;2023-05-07T05:06:17;26.97;;;15.63;;
19111;SDS011;9688;51.906;8.376;2023-05-07T05:09:02;25.30;;;15.27;;
19111;SDS011;9688;51.906;8.376;2023-05-07T05:11:48;22.77;;;14.87;;
19111;SDS011;9688;51.906;8.376;2023-05-07T05:14:34;30.63;;;15.70;;
19111;SDS011;9688;51.906;8.376;2023-05-07T05:17:21;25.20;;;15.13;;
19111;SDS011;9688;51.906;8.376;2023-05-07T05:20:07;24.37;;;15.83;;
19111;SDS011;9688;51.906;8.376;2023-05-07T05:22:55;23.23;;;15.97;;
19111;SDS011;9688;51.906;8.376;2023-05-07T05:25:41;23.73;;;15.33;;
19111;SDS011;9688;51.906;8.376;2023-05-07T05:28:26;21.43;;;15.47;;
19111;SDS011;9688;51.906;8.376;2023-05-07T05:31:12;25.50;;;15.37;;
19111;SDS011;9688;51.906;8.376;2023-05-07T05:33:59;24.07;;;14.87;;
19111;SDS011;9688;51.906;8.376;2023-05-07T05:36:44;23.97;;;15.10;;
19111;SDS011;9688;51.906;8.376;2023-05-07T05:39:30;26.43;;;16.20;;
19111;SDS011;9688;51.906;8.376;2023-05-07T05:42:15;28.37;;;16.50;;
19111;SDS011;9688;51.906;8.376;2023-05-07T05:45:01;24.80;;;15.10;;
19111;SDS011;9688;51.906;8.376;2023-05-07T05:47:46;27.77;;;16.50;;
19111;SDS011;9688;51.906;8.376;2023-05-07T05:50:33;26.13;;;15.03;;
19111;SDS011;9688;51.906;8.376;2023-05-07T05:53:19;29.30;;;16.60;;
19111;SDS011;9688;51.906;8.376;2023-05-07T05:56:05;24.47;;;15.67;;
19111;SDS011;9688;51.906;8.376;2023-05-07T05:58:51;28.83;;;16.80;;
19111;SDS011;9688;51.906;8.376;2023-05-07T06:01:39;23.03;;;15.73;;
19111;SDS011;9688;51.906;8.376;2023-05-07T06:04:24;27.33;;;15.30;;
19111;SDS011;9688;51.906;8.376;2023-05-07T06:07:11;25.17;;;15.63;;
19111;SDS011;9688;51.906;8.376;2023-05-07T06:09:57;24.33;;;15.70;;
19111;SDS011;9688;51.906;8.376;2023-05-07T06:12:42;26.93;;;16.57;;
19111;SDS011;9688;51.906;8.376;2023-05-07T06:15:31;23.20;;;15.17;;
19111;SDS011;9688;51.906;8.376;2023-05-07T06:18:17;24.10;;;15.00;;
19111;SDS011;9688;51.906;8.376;2023-05-07T06:21:02;22.87;;;14.63;;
19111;SDS011;9688;51.906;8.376;2023-05-07T06:30:11;22.83;;;14.30;;
19111;SDS011;9688;51.906;8.376;2023-05-07T06:32:58;25.63;;;15.43;;
19111;SDS011;9688;51.906;8.376;2023-05-07T06:35:44;24.53;;;15.07;;
19111;SDS011;9688;51.906;8.376;2023-05-07T06:38:29;23.87;;;14.83;;
19111;SDS011;9688;51.906;8.376;2023-05-07T06:41:15;23.93;;;14.53;;
19111;SDS011;9688;51.906;8.376;2023-05-07T06:44:00;23.07;;;14.60;;
19111;SDS011;9688;51.906;8.376;2023-05-07T06:46:47;22.03;;;13.53;;
19111;SDS011;9688;51.906;8.376;2023-05-07T06:49:33;26.67;;;15.37;;
19111;SDS011;9688;51.906;8.376;2023-05-07T06:52:18;19.90;;;13.27;;
19111;SDS011;9688;51.906;8.376;2023-05-07T06:55:07;21.73;;;14.07;;
19111;SDS011;9688;51.906;8.376;2023-05-07T06:57:55;21.67;;;14.03;;
19111;SDS011;9688;51.906;8.376;2023-05-07T07:00:42;21.80;;;12.83;;
19111;SDS011;9688;51.906;8.376;2023-05-07T07:03:28;20.90;;;13.13;;
19111;SDS011;9688;51.906;8.376;2023-05-07T07:06:14;18.20;;;12.83;;
19111;SDS011;9688;51.906;8.376;2023-05-07T07:09:00;18.80;;;12.83;;
19111;SDS011;9688;51.906;8.376;2023-05-07T07:11:45;19.70;;;12.20;;
19111;SDS011;9688;51.906;8.376;2023-05-07T07:14:32;20.80;;;12.70;;
19111;SDS011;9688;51.906;8.376;2023-05-07T07:17:20;19.20;;;12.70;;
19111;SDS011;9688;51.906;8.376;2023-05-07T07:20:07;21.57;;;12.53;;
19111;SDS011;9688;51.906;8.376;2023-05-07T07:22:54;16.77;;;12.23;;
19111;SDS011;9688;51.906;8.376;2023-05-07T07:25:39;18.60;;;13.10;;
19111;SDS011;9688;51.906;8.376;2023-05-07T07:28:25;17.37;;;11.67;;
19111;SDS011;9688;51.906;8.376;2023-05-07T07:31:10;19.00;;;12.33;;
19111;SDS011;9688;51.906;8.376;2023-05-07T07:33:57;19.27;;;12.40;;
19111;SDS011;9688;51.906;8.376;2023-05-07T07:36:44;21.03;;;12.10;;
19111;SDS011;9688;51.906;8.376;2023-05-07T07:39:29;17.20;;;11.77;;
19111;SDS011;9688;51.906;8.376;2023-05-07T07:42:14;17.50;;;11.67;;
19111;SDS011;9688;51.906;8.376;2023-05-07T07:45:00;18.27;;;12.10;;
19111;SDS011;9688;51.906;8.376;2023-05-07T07:47:46;16.40;;;10.73;;
19111;SDS011;9688;51.906;8.376;2023-05-07T07:50:32;15.70;;;10.97;;
19111;SDS011;9688;51.906;8.376;2023-05-07T07:53:19;14.67;;;11.40;;
19111;SDS011;9688;51.906;8.376;2023-05-07T07:56:06;18.23;;;11.50;;
19111;SDS011;9688;51.906;8.376;2023-05-07T07:58:52;15.73;;;10.53;;
19111;SDS011;9688;51.906;8.376;2023-05-07T08:01:37;15.77;;;10.53;;
19111;SDS011;9688;51.906;8.376;2023-05-07T08:04:23;18.73;;;10.80;;
19111;SDS011;9688;51.906;8.376;2023-05-07T08:07:08;15.70;;;10.97;;
19111;SDS011;9688;51.906;8.376;2023-05-07T08:09:56;14.27;;;10.77;;
19111;SDS011;9688;51.906;8.376;2023-05-07T08:12:41;14.80;;;10.37;;
19111;SDS011;9688;51.906;8.376;2023-05-07T08:15:30;15.77;;;10.47;;
19111;SDS011;9688;51.906;8.376;2023-05-07T08:18:15;14.73;;;10.60;;
19111;SDS011;9688;51.906;8.376;2023-05-07T08:21:01;14.10;;;9.80;;
19111;SDS011;9688;51.906;8.376;2023-05-07T08:23:47;16.30;;;10.20;;
19111;SDS011;9688;51.906;8.376;2023-05-07T08:26:34;12.93;;;10.30;;
19111;SDS011;9688;51.906;8.376;2023-05-07T08:29:19;14.73;;;9.97;;
19111;SDS011;9688;51.906;8.376;2023-05-07T08:32:05;15.73;;;10.13;;
19111;SDS011;9688;51.906;8.376;2023-05-07T08:34:50;15.00;;;9.60;;
19111;SDS011;9688;51.906;8.376;2023-05-07T08:37:36;14.43;;;9.67;;
19111;SDS011;9688;51.906;8.376;2023-05-07T08:40:22;12.13;;;8.43;;
19111;SDS011;9688;51.906;8.376;2023-05-07T08:43:13;13.70;;;9.07;;
19111;SDS011;9688;51.906;8.376;2023-05-07T08:46:00;12.97;;;8.30;;
19111;SDS011;9688;51.906;8.376;2023-05-07T08:48:47;10.83;;;8.40;;
19111;SDS011;9688;51.906;8.376;2023-05-07T08:51:35;11.77;;;8.47;;
19111;SDS011;9688;51.906;8.376;2023-05-07T08:54:21;12.07;;;8.07;;
19111;SDS011;9688;51.906;8.376;2023-05-07T08:57:07;11.20;;;8.50;;
19111;SDS011;9688;51.906;8.376;2023-05-07T08:59:53;11.57;;;8.20;;
19111;SDS011;9688;51.906;8.376;2023-05-07T09:02:39;10.47;;;8.03;;
19111;SDS011;9688;51.906;8.376;2023-05-07T09:05:25;11.60;;;8.40;;
19111;SDS011;9688;51.906;8.376;2023-05-07T09:08:14;11.77;;;8.70;;
19111;SDS011;9688;51.906;8.376;2023-05-07T09:11:01;11.07;;;8.07;;
19111;SDS011;9688;51.906;8.376;2023-05-07T09:13:47;9.17;;;7.10;;
19111;SDS011;9688;51.906;8.376;2023-05-07T09:16:35;10.30;;;7.67;;
19111;SDS011;9688;51.906;8.376;2023-05-07T09:19:22;9.30;;;7.23;;
19111;SDS011;9688;51.906;8.376;2023-05-07T09:22:08;9.50;;;7.17;;
19111;SDS011;9688;51.906;8.376;2023-05-07T09:24:53;10.73;;;7.87;;
19111;SDS011;9688;51.906;8.376;2023-05-07T09:27:38;10.37;;;7.17;;
19111;SDS011;9688;51.906;8.376;2023-05-07T09:30:27;10.33;;;7.27;;
19111;SDS011;9688;51.906;8.376;2023-05-07T09:33:15;8.73;;;7.23;;
19111;SDS011;9688;51.906;8.376;2023-05-07T09:36:03;8.17;;;6.63;;
19111;SDS011;9688;51.906;8.376;2023-05-07T09:38:50;10.20;;;7.37;;
19111;SDS011;9688;51.906;8.376;2023-05-07T09:41:42;8.73;;;6.90;;
19111;SDS011;9688;51.906;8.376;2023-05-07T09:44:28;8.70;;;7.37;;
19111;SDS011;9688;51.906;8.376;2023-05-07T09:47:17;11.07;;;7.30;;
19111;SDS011;9688;51.906;8.376;2023-05-07T09:50:08;11.17;;;8.27;;
19111;SDS011;9688;51.906;8.376;2023-05-07T09:52:56;13.90;;;7.87;;
19111;SDS011;9688;51.906;8.376;2023-05-07T09:55:43;10.63;;;7.40;;
19111;SDS011;9688;51.906;8.376;2023-05-07T09:58:30;9.67;;;8.10;;
19111;SDS011;9688;51.906;8.376;2023-05-07T10:01:18;10.10;;;7.87;;
19111;SDS011;9688;51.906;8.376;2023-05-07T10:04:06;11.47;;;8.23;;
19111;SDS011;9688;51.906;8.376;2023-05-07T10:06:53;10.83;;;7.50;;
19111;SDS011;9688;51.906;8.376;2023-05-07T10:09:40;11.17;;;8.20;;
19111;SDS011;9688;51.906;8.376;2023-05-07T10:12:29;12.07;;;8.47;;
19111;SDS011;9688;51.906;8.376;2023-05-07T10:15:21;10.60;;;8.00;;
19111;SDS011;9688;51.906;8.376;2023-05-07T10:18:08;8.40;;;7.30;;
19111;SDS011;9688;51.906;8.376;2023-05-07T10:20:55;9.90;;;8.03;;
19111;SDS011;9688;51.906;8.376;2023-05-07T10:23:49;11.17;;;7.93;;
19111;SDS011;9688;51.906;8.376;2023-05-07T10:26:35;11.20;;;8.20;;
19111;SDS011;9688;51.906;8.376;2023-05-07T10:29:25;12.67;;;7.63;;
19111;SDS011;9688;51.906;8.376;2023-05-07T10:32:27;13.20;;;7.77;;
19111;SDS011;9688;51.906;8.376;2023-05-07T10:35:21;10.57;;;7.93;;
19111;SDS011;9688;51.906;8.376;2023-05-07T10:38:10;11.57;;;8.13;;
19111;SDS011;9688;51.906;8.376;2023-05-07T10:40:57;13.00;;;8.03;;
19111;SDS011;9688;51.906;8.376;2023-05-07T10:43:46;12.30;;;8.50;;
19111;SDS011;9688;51.906;8.376;2023-05-07T10:46:33;11.60;;;7.50;;
19111;SDS011;9688;51.906;8.376;2023-05-07T10:49:19;11.80;;;8.20;;
19111;SDS011;9688;51.906;8.376;2023-05-07T10:52:14;10.87;;;8.43;;
19111;SDS011;9688;51.906;8.376;2023-05-07T10:55:19;11.20;;;8.10;;
19111;SDS011;9688;51.906;8.376;2023-05-07T10:58:26;10.53;;;7.47;;
19111;SDS011;9688;51.906;8.376;2023-05-07T11:01:14;11.93;;;7.90;;
19111;SDS011;9688;51.906;8.376;2023-05-07T11:10:17;10.40;;;7.70;;
19111;SDS011;9688;51.906;8.376;2023-05-07T11:13:07;12.10;;;7.00;;
19111;SDS011;9688;51.906;8.376;2023-05-07T11:15:55;9.07;;;6.87;;
19111;SDS011;9688;51.906;8.376;2023-05-07T11:18:46;9.77;;;7.70;;
19111;SDS011;9688;51.906;8.376;2023-05-07T11:21:33;10.10;;;7.80;;
19111;SDS011;9688;51.906;8.376;2023-05-07T11:24:22;11.37;;;6.80;;
19111;SDS011;9688;51.906;8.376;2023-05-07T11:27:08;9.73;;;7.40;;
19111;SDS011;9688;51.906;8.376;2023-05-07T11:29:54;10.93;;;7.20;;
19111;SDS011;9688;51.906;8.376;2023-05-07T11:32:41;9.97;;;7.37;;
19111;SDS011;9688;51.906;8.376;2023-05-07T11:35:27;11.47;;;7.40;;
19111;SDS011;9688;51.906;8.376;2023-05-07T11:38:13;8.93;;;6.90;;
19111;SDS011;9688;51.906;8.376;2023-05-07T11:40:59;9.93;;;7.50;;
19111;SDS011;9688;51.906;8.376;2023-05-07T11:43:58;9.10;;;7.13;;
19111;SDS011;9688;51.906;8.376;2023-05-07T11:46:45;7.23;;;6.37;;
19111;SDS011;9688;51.906;8.376;2023-05-07T11:49:32;10.67;;;7.27;;
19111;SDS011;9688;51.906;8.376;2023-05-07T11:52:21;9.43;;;7.17;;
19111;SDS011;9688;51.906;8.376;2023-05-07T11:55:08;9.80;;;7.17;;
19111;SDS011;9688;51.906;8.376;2023-05-07T11:57:56;11.73;;;7.00;;
19111;SDS011;9688;51.906;8.376;2023-05-07T12:00:47;9.00;;;6.27;;
19111;SDS011;9688;51.906;8.376;2023-05-07T12:03:33;7.00;;;5.70;;
19111;SDS011;9688;51.906;8.376;2023-05-07T12:06:21;7.93;;;6.33;;
19111;SDS011;9688;51.906;8.376;2023-05-07T12:09:08;7.87;;;6.33;;
19111;SDS011;9688;51.906;8.376;2023-05-07T12:11:56;6.70;;;5.83;;
19111;SDS011;9688;51.906;8.376;2023-05-07T12:14:43;7.77;;;6.40;;
19111;SDS011;9688;51.906;8.376;2023-05-07T12:17:31;6.50;;;5.43;;
19111;SDS011;9688;51.906;8.376;2023-05-07T12:20:17;8.63;;;5.80;;
19111;SDS011;9688;51.906;8.376;2023-05-07T12:23:06;5.97;;;4.93;;
19111;SDS011;9688;51.906;8.376;2023-05-07T12:26:03;5.47;;;4.73;;
19111;SDS011;9688;51.906;8.376;2023-05-07T12:28:52;6.93;;;5.33;;
19111;SDS011;9688;51.906;8.376;2023-05-07T12:31:40;6.03;;;5.00;;
19111;SDS011;9688;51.906;8.376;2023-05-07T12:34:26;7.00;;;5.43;;
19111;SDS011;9688;51.906;8.376;2023-05-07T12:37:15;5.37;;;4.87;;
19111;SDS011;9688;51.906;8.376;2023-05-07T12:40:07;8.13;;;5.53;;
19111;SDS011;9688;51.906;8.376;2023-05-07T12:42:54;5.80;;;5.20;;
19111;SDS011;9688;51.906;8.376;2023-05-07T12:45:40;5.38;;;4.88;;
19111;SDS011;9688;51.906;8.376;2023-05-07T12:48:31;5.40;;;4.83;;
19111;SDS011;9688;51.906;8.376;2023-05-07T12:51:22;5.55;;;5.00;;
19111;SDS011;9688;51.906;8.376;2023-05-07T12:54:09;5.43;;;4.87;;
19111;SDS011;9688;51.906;8.376;2023-05-07T12:57:01;5.33;;;4.83;;
19111;SDS011;9688;51.906;8.376;2023-05-07T12:59:48;6.07;;;4.43;;
19111;SDS011;9688;51.906;8.376;2023-05-07T13:02:37;4.60;;;4.17;;
19111;SDS011;9688;51.906;8.376;2023-05-07T13:05:26;4.35;;;3.75;;
19111;SDS011;9688;51.906;8.376;2023-05-07T13:08:11;4.03;;;3.73;;
19111;SDS011;9688;51.906;8.376;2023-05-07T13:10:58;4.23;;;3.80;;
19111;SDS011;9688;51.906;8.376;2023-05-07T13:13:48;4.60;;;4.20;;
19111;SDS011;9688;51.906;8.376;2023-05-07T13:16:34;5.82;;;4.60;;
19111;SDS011;9688;51.906;8.376;2023-05-07T13:19:20;4.20;;;3.80;;
19111;SDS011;9688;51.906;8.376;2023-05-07T13:22:07;8.37;;;4.43;;
19111;SDS011;9688;51.906;8.376;2023-05-07T13:24:52;4.00;;;3.60;;
19111;SDS011;9688;51.906;8.376;2023-05-07T13:27:38;4.25;;;3.85;;
19111;SDS011;9688;51.906;8.376;2023-05-07T13:30:26;3.80;;;3.37;;
19111;SDS011;9688;51.906;8.376;2023-05-07T13:33:14;4.57;;;3.80;;
19111;SDS011;9688;51.906;8.376;2023-05-07T13:36:01;4.30;;;3.58;;
19111;SDS011;9688;51.906;8.376;2023-05-07T13:38:49;3.72;;;3.28;;
19111;SDS011;9688;51.906;8.376;2023-05-07T13:41:37;4.35;;;3.33;;
19111;SDS011;9688;51.906;8.376;2023-05-07T13:44:29;4.25;;;3.85;;
19111;SDS011;9688;51.906;8.376;2023-05-07T13:47:17;3.67;;;3.38;;
19111;SDS011;9688;51.906;8.376;2023-05-07T13:50:05;4.53;;;3.47;;
19111;SDS011;9688;51.906;8.376;2023-05-07T13:52:54;6.40;;;3.83;;
19111;SDS011;9688;51.906;8.376;2023-05-07T13:55:42;6.25;;;3.90;;
19111;SDS011;9688;51.906;8.376;2023-05-07T13:58:31;3.40;;;3.10;;
19111;SDS011;9688;51.906;8.376;2023-05-07T14:01:17;3.20;;;3.00;;
19111;SDS011;9688;51.906;8.376;2023-05-07T14:04:07;3.35;;;3.10;;
19111;SDS011;9688;51.906;8.376;2023-05-07T14:06:55;3.37;;;3.17;;
19111;SDS011;9688;51.906;8.376;2023-05-07T14:09:41;5.00;;;3.50;;
19111;SDS011;9688;51.906;8.376;2023-05-07T14:12:31;3.80;;;3.50;;
19111;SDS011;9688;51.906;8.376;2023-05-07T14:15:17;4.55;;;4.10;;
19111;SDS011;9688;51.906;8.376;2023-05-07T14:18:04;4.00;;;3.25;;
19111;SDS011;9688;51.906;8.376;2023-05-07T14:20:53;5.78;;;3.53;;
19111;SDS011;9688;51.906;8.376;2023-05-07T14:23:38;5.03;;;3.78;;
19111;SDS011;9688;51.906;8.376;2023-05-07T14:26:26;5.65;;;3.60;;
19111;SDS011;9688;51.906;8.376;2023-05-07T14:29:12;3.70;;;3.40;;
19111;SDS011;9688;51.906;8.376;2023-05-07T14:32:00;3.87;;;3.57;;
19111;SDS011;9688;51.906;8.376;2023-05-07T14:34:46;3.80;;;3.50;;
19111;SDS011;9688;51.906;8.376;2023-05-07T14:37:33;4.07;;;3.63;;
19111;SDS011;9688;51.906;8.376;2023-05-07T14:40:21;5.87;;;3.60;;
19111;SDS011;9688;51.906;8.376;2023-05-07T14:43:10;4.20;;;3.83;;
19111;SDS011;9688;51.906;8.376;2023-05-07T14:45:58;4.47;;;3.73;;
19111;SDS011;9688;51.906;8.376;2023-05-07T14:48:47;4.40;;;4.00;;
19111;SDS011;9688;51.906;8.376;2023-05-07T14:51:35;4.60;;;3.80;;
19111;SDS011;9688;51.906;8.376;2023-05-07T14:54:26;4.20;;;3.70;;
19111;SDS011;9688;51.906;8.376;2023-05-07T14:57:14;5.07;;;4.40;;
19111;SDS011;9688;51.906;8.376;2023-05-07T15:00:04;5.27;;;3.90;;
19111;SDS011;9688;51.906;8.376;2023-05-07T15:02:51;4.50;;;4.10;;
19111;SDS011;9688;51.906;8.376;2023-05-07T15:05:38;4.60;;;4.20;;
19111;SDS011;9688;51.906;8.376;2023-05-07T15:08:28;4.73;;;4.33;;
19111;SDS011;9688;51.906;8.376;2023-05-07T15:11:18;4.50;;;4.10;;
19111;SDS011;9688;51.906;8.376;2023-05-07T15:14:04;9.00;;;4.43;;
19111;SDS011;9688;51.906;8.376;2023-05-07T15:16:51;5.70;;;4.83;;
19111;SDS011;9688;51.906;8.376;2023-05-07T15:19:36;5.47;;;4.97;;
19111;SDS011;9688;51.906;8.376;2023-05-07T15:22:23;6.10;;;4.83;;
19111;SDS011;9688;51.906;8.376;2023-05-07T15:25:10;6.47;;;5.30;;
19111;SDS011;9688;51.906;8.376;2023-05-07T15:27:57;5.37;;;4.87;;
19111;SDS011;9688;51.906;8.376;2023-05-07T15:30:42;5.17;;;4.40;;
19111;SDS011;9688;51.906;8.376;2023-05-07T15:33:28;5.47;;;4.70;;
19111;SDS011;9688;51.906;8.376;2023-05-07T15:36:16;5.90;;;4.97;;
19111;SDS011;9688;51.906;8.376;2023-05-07T15:39:04;4.90;;;4.47;;
19111;SDS011;9688;51.906;8.376;2023-05-07T15:41:50;5.07;;;4.50;;
19111;SDS011;9688;51.906;8.376;2023-05-07T15:44:38;6.43;;;5.83;;
19111;SDS011;9688;51.906;8.376;2023-05-07T15:47:26;6.33;;;5.33;;
19111;SDS011;9688;51.906;8.376;2023-05-07T15:50:14;8.57;;;5.67;;
19111;SDS011;9688;51.906;8.376;2023-05-07T15:53:00;6.40;;;5.65;;
19111;SDS011;9688;51.906;8.376;2023-05-07T15:55:45;5.70;;;5.17;;
19111;SDS011;9688;51.906;8.376;2023-05-07T15:58:31;7.83;;;5.40;;
19111;SDS011;9688;51.906;8.376;2023-05-07T16:01:18;6.28;;;5.60;;
19111;SDS011;9688;51.906;8.376;2023-05-07T16:04:08;5.93;;;5.33;;
19111;SDS011;9688;51.906;8.376;2023-05-07T16:06:54;5.47;;;5.07;;
19111;SDS011;9688;51.906;8.376;2023-05-07T16:09:42;6.87;;;5.73;;
19111;SDS011;9688;51.906;8.376;2023-05-07T16:12:31;6.60;;;5.90;;
19111;SDS011;9688;51.906;8.376;2023-05-07T16:15:16;9.20;;;6.50;;
19111;SDS011;9688;51.906;8.376;2023-05-07T16:18:05;6.77;;;5.70;;
19111;SDS011;9688;51.906;8.376;2023-05-07T16:20:55;8.30;;;5.97;;
19111;SDS011;9688;51.906;8.376;2023-05-07T16:23:44;9.43;;;5.73;;
19111;SDS011;9688;51.906;8.376;2023-05-07T16:26:34;6.97;;;6.27;;
19111;SDS011;9688;51.906;8.376;2023-05-07T16:29:20;7.87;;;6.53;;
19111;SDS011;9688;51.906;8.376;2023-05-07T16:32:06;8.43;;;6.77;;
19111;SDS011;9688;51.906;8.376;2023-05-07T16:34:53;7.13;;;6.43;;
19111;SDS011;9688;51.906;8.376;2023-05-07T16:37:39;8.93;;;6.47;;
19111;SDS011;9688;51.906;8.376;2023-05-07T16:40:27;8.57;;;6.23;;
19111;SDS011;9688;51.906;8.376;2023-05-07T16:43:14;7.83;;;7.00;;
19111;SDS011;9688;51.906;8.376;2023-05-07T16:46:00;9.00;;;6.60;;
19111;SDS011;9688;51.906;8.376;2023-05-07T16:48:46;7.40;;;6.20;;
19111;SDS011;9688;51.906;8.376;2023-05-07T16:51:36;7.07;;;6.37;;
19111;SDS011;9688;51.906;8.376;2023-05-07T16:54:23;7.97;;;6.63;;
19111;SDS011;9688;51.906;8.376;2023-05-07T16:57:09;9.47;;;6.63;;